sensor_id;sensor_type;location;lat;lon;timestamp;temperature;humidity
610;DHT22;292;48.800;9.216;2022-11-11T00:00:21;10.60;79.60
610;DHT22;292;48.800;9.216;2022-11-11T00:02:48;10.60;79.60
610;DHT22;292;48.800;9.216;2022-11-11T00:05:16;10.50;79.70
610;DHT22;292;48.800;9.216;2022-11-11T00:07:43;10.50;79.70
610;DHT22;292;48.800;9.216;2022-11-11T00:10:10;10.50;79.70
610;DHT22;292;48.800;9.216;2022-11-11T00:12:38;10.50;79.90
610;DHT22;292;48.800;9.216;2022-11-11T00:15:07;10.40;79.70
610;DHT22;292;48.800;9.216;2022-11-11T00:17:35;10.30;79.90
610;DHT22;292;48.800;9.216;2022-11-11T00:20:20;10.30;80.30
610;DHT22;292;48.800;9.216;2022-11-11T00:23:04;10.30;80.30
610;DHT22;292;48.800;9.216;2022-11-11T00:25:50;10.30;80.40
610;DHT22;292;48.800;9.216;2022-11-11T00:28:19;10.20;80.40
610;DHT22;292;48.800;9.216;2022-11-11T00:30:46;10.20;80.60
610;DHT22;292;48.800;9.216;2022-11-11T00:33:13;10.20;80.60
610;DHT22;292;48.800;9.216;2022-11-11T00:35:41;10.20;80.70
610;DHT22;292;48.800;9.216;2022-11-11T00:38:20;10.20;80.70
610;DHT22;292;48.800;9.216;2022-11-11T00:41:04;10.30;80.70
610;DHT22;292;48.800;9.216;2022-11-11T00:43:33;10.30;80.70
610;DHT22;292;48.800;9.216;2022-11-11T00:46:01;10.30;80.60
610;DHT22;292;48.800;9.216;2022-11-11T00:48:45;10.30;80.70
610;DHT22;292;48.800;9.216;2022-11-11T00:51:30;10.20;80.60
610;DHT22;292;48.800;9.216;2022-11-11T00:53:57;10.20;80.40
610;DHT22;292;48.800;9.216;2022-11-11T00:56:24;10.10;80.60
610;DHT22;292;48.800;9.216;2022-11-11T00:58:53;10.00;80.70
610;DHT22;292;48.800;9.216;2022-11-11T01:01:20;10.00;80.90
610;DHT22;292;48.800;9.216;2022-11-11T01:03:47;10.00;81.00
610;DHT22;292;48.800;9.216;2022-11-11T01:06:14;10.00;81.00
610;DHT22;292;48.800;9.216;2022-11-11T01:08:41;10.00;81.00
610;DHT22;292;48.800;9.216;2022-11-11T01:11:13;9.90;81.20
610;DHT22;292;48.800;9.216;2022-11-11T01:13:41;9.90;81.20
610;DHT22;292;48.800;9.216;2022-11-11T01:16:11;9.90;81.40
610;DHT22;292;48.800;9.216;2022-11-11T01:18:39;9.90;81.30
610;DHT22;292;48.800;9.216;2022-11-11T01:21:10;9.90;81.30
610;DHT22;292;48.800;9.216;2022-11-11T01:23:38;9.80;81.40
610;DHT22;292;48.800;9.216;2022-11-11T01:26:08;9.70;81.40
610;DHT22;292;48.800;9.216;2022-11-11T01:28:35;9.70;81.40
610;DHT22;292;48.800;9.216;2022-11-11T01:31:04;9.60;81.70
610;DHT22;292;48.800;9.216;2022-11-11T01:33:34;9.60;81.90
610;DHT22;292;48.800;9.216;2022-11-11T01:36:06;9.60;81.90
610;DHT22;292;48.800;9.216;2022-11-11T01:38:33;9.60;81.90
610;DHT22;292;48.800;9.216;2022-11-11T01:41:00;9.60;82.00
610;DHT22;292;48.800;9.216;2022-11-11T01:43:48;9.60;82.00
610;DHT22;292;48.800;9.216;2022-11-11T01:46:25;9.60;82.00
610;DHT22;292;48.800;9.216;2022-11-11T01:48:57;9.50;82.10
610;DHT22;292;48.800;9.216;2022-11-11T01:51:53;9.50;82.10
610;DHT22;292;48.800;9.216;2022-11-11T01:54:26;9.50;82.00
610;DHT22;292;48.800;9.216;2022-11-11T01:56:59;9.40;82.40
610;DHT22;292;48.800;9.216;2022-11-11T01:59:29;9.40;82.40
610;DHT22;292;48.800;9.216;2022-11-11T02:01:58;9.40;82.50
610;DHT22;292;48.800;9.216;2022-11-11T02:04:27;9.40;82.50
610;DHT22;292;48.800;9.216;2022-11-11T02:07:12;9.40;82.50
610;DHT22;292;48.800;9.216;2022-11-11T02:09:44;9.40;82.50
610;DHT22;292;48.800;9.216;2022-11-11T02:12:11;9.40;82.50
610;DHT22;292;48.800;9.216;2022-11-11T02:14:58;9.30;82.50
610;DHT22;292;48.800;9.216;2022-11-11T02:17:29;9.30;82.40
610;DHT22;292;48.800;9.216;2022-11-11T02:20:00;9.30;82.40
610;DHT22;292;48.800;9.216;2022-11-11T02:22:40;9.30;82.50
610;DHT22;292;48.800;9.216;2022-11-11T02:25:12;9.20;82.40
610;DHT22;292;48.800;9.216;2022-11-11T02:27:43;9.20;82.40
610;DHT22;292;48.800;9.216;2022-11-11T02:30:11;9.10;82.40
610;DHT22;292;48.800;9.216;2022-11-11T02:32:42;9.10;82.40
610;DHT22;292;48.800;9.216;2022-11-11T02:35:15;9.10;82.60
610;DHT22;292;48.800;9.216;2022-11-11T02:37:45;9.00;82.50
610;DHT22;292;48.800;9.216;2022-11-11T02:40:17;9.00;82.50
610;DHT22;292;48.800;9.216;2022-11-11T02:42:44;9.00;82.60
610;DHT22;292;48.800;9.216;2022-11-11T02:45:10;9.00;82.60
610;DHT22;292;48.800;9.216;2022-11-11T02:47:37;8.90;82.40
610;DHT22;292;48.800;9.216;2022-11-11T02:50:05;8.90;82.60
610;DHT22;292;48.800;9.216;2022-11-11T02:52:32;8.90;82.40
610;DHT22;292;48.800;9.216;2022-11-11T02:55:00;8.80;82.40
610;DHT22;292;48.800;9.216;2022-11-11T02:57:29;8.80;82.60
610;DHT22;292;48.800;9.216;2022-11-11T02:59:58;8.70;82.80
610;DHT22;292;48.800;9.216;2022-11-11T03:02:25;8.70;82.60
610;DHT22;292;48.800;9.216;2022-11-11T03:04:52;8.60;82.90
610;DHT22;292;48.800;9.216;2022-11-11T03:07:20;8.60;82.90
610;DHT22;292;48.800;9.216;2022-11-11T03:09:47;8.50;83.10
610;DHT22;292;48.800;9.216;2022-11-11T03:12:14;8.40;83.40
610;DHT22;292;48.800;9.216;2022-11-11T03:14:43;8.30;83.60
610;DHT22;292;48.800;9.216;2022-11-11T03:17:10;8.30;83.90
610;DHT22;292;48.800;9.216;2022-11-11T03:19:54;8.30;83.80
610;DHT22;292;48.800;9.216;2022-11-11T03:22:42;8.30;83.80
610;DHT22;292;48.800;9.216;2022-11-11T03:25:08;8.20;83.90
610;DHT22;292;48.800;9.216;2022-11-11T03:27:52;8.20;83.90
610;DHT22;292;48.800;9.216;2022-11-11T03:30:21;8.30;83.80
610;DHT22;292;48.800;9.216;2022-11-11T03:32:48;8.30;83.80
610;DHT22;292;48.800;9.216;2022-11-11T03:35:15;8.20;83.80
610;DHT22;292;48.800;9.216;2022-11-11T03:37:42;8.20;83.90
610;DHT22;292;48.800;9.216;2022-11-11T03:40:27;8.20;83.90
610;DHT22;292;48.800;9.216;2022-11-11T03:42:54;8.20;83.90
610;DHT22;292;48.800;9.216;2022-11-11T03:45:22;8.10;83.90
610;DHT22;292;48.800;9.216;2022-11-11T03:47:49;8.10;84.10
610;DHT22;292;48.800;9.216;2022-11-11T03:50:17;8.00;84.10
610;DHT22;292;48.800;9.216;2022-11-11T03:52:44;8.00;84.10
610;DHT22;292;48.800;9.216;2022-11-11T03:55:11;7.90;84.40
610;DHT22;292;48.800;9.216;2022-11-11T03:57:40;7.90;84.10
610;DHT22;292;48.800;9.216;2022-11-11T04:00:08;7.80;84.40
610;DHT22;292;48.800;9.216;2022-11-11T04:02:36;7.80;84.50
610;DHT22;292;48.800;9.216;2022-11-11T04:05:21;7.70;84.70
610;DHT22;292;48.800;9.216;2022-11-11T04:08:09;7.70;84.80
610;DHT22;292;48.800;9.216;2022-11-11T04:10:55;7.70;84.80
610;DHT22;292;48.800;9.216;2022-11-11T04:13:22;7.60;84.90
610;DHT22;292;48.800;9.216;2022-11-11T04:16:06;7.60;84.80
610;DHT22;292;48.800;9.216;2022-11-11T04:18:36;7.60;84.80
610;DHT22;292;48.800;9.216;2022-11-11T04:21:21;7.60;84.90
610;DHT22;292;48.800;9.216;2022-11-11T04:24:06;7.60;84.90
610;DHT22;292;48.800;9.216;2022-11-11T04:26:47;7.70;84.90
610;DHT22;292;48.800;9.216;2022-11-11T04:29:14;7.70;84.70
610;DHT22;292;48.800;9.216;2022-11-11T04:31:57;7.70;84.70
610;DHT22;292;48.800;9.216;2022-11-11T04:34:45;7.70;84.50
610;DHT22;292;48.800;9.216;2022-11-11T04:37:13;7.70;84.20
610;DHT22;292;48.800;9.216;2022-11-11T04:39:40;7.60;84.20
610;DHT22;292;48.800;9.216;2022-11-11T04:42:26;7.60;84.20
610;DHT22;292;48.800;9.216;2022-11-11T04:44:53;7.60;84.20
610;DHT22;292;48.800;9.216;2022-11-11T04:47:38;7.60;84.10
610;DHT22;292;48.800;9.216;2022-11-11T04:50:07;7.60;84.10
610;DHT22;292;48.800;9.216;2022-11-11T04:52:34;7.60;84.10
610;DHT22;292;48.800;9.216;2022-11-11T04:55:01;7.50;84.10
610;DHT22;292;48.800;9.216;2022-11-11T04:57:47;7.50;84.10
610;DHT22;292;48.800;9.216;2022-11-11T05:00:16;7.50;84.10
610;DHT22;292;48.800;9.216;2022-11-11T05:02:44;7.50;84.10
610;DHT22;292;48.800;9.216;2022-11-11T05:05:30;7.50;84.20
610;DHT22;292;48.800;9.216;2022-11-11T05:08:18;7.50;84.20
610;DHT22;292;48.800;9.216;2022-11-11T05:11:02;7.50;83.90
610;DHT22;292;48.800;9.216;2022-11-11T05:13:29;7.50;84.10
610;DHT22;292;48.800;9.216;2022-11-11T05:16:17;7.40;83.90
610;DHT22;292;48.800;9.216;2022-11-11T05:19:02;7.40;84.20
610;DHT22;292;48.800;9.216;2022-11-11T05:21:50;7.40;84.10
610;DHT22;292;48.800;9.216;2022-11-11T05:24:19;7.40;83.90
610;DHT22;292;48.800;9.216;2022-11-11T05:27:03;7.30;84.10
610;DHT22;292;48.800;9.216;2022-11-11T05:29:30;7.30;84.20
610;DHT22;292;48.800;9.216;2022-11-11T05:31:57;7.30;84.40
610;DHT22;292;48.800;9.216;2022-11-11T05:34:25;7.30;84.20
610;DHT22;292;48.800;9.216;2022-11-11T05:36:53;7.20;84.40
610;DHT22;292;48.800;9.216;2022-11-11T05:39:20;7.20;84.40
610;DHT22;292;48.800;9.216;2022-11-11T05:41:47;7.20;84.70
610;DHT22;292;48.800;9.216;2022-11-11T05:44:14;7.20;84.50
610;DHT22;292;48.800;9.216;2022-11-11T05:46:41;7.20;84.70
610;DHT22;292;48.800;9.216;2022-11-11T05:49:08;7.20;84.70
610;DHT22;292;48.800;9.216;2022-11-11T05:51:41;7.20;84.70
610;DHT22;292;48.800;9.216;2022-11-11T05:54:09;7.20;84.70
610;DHT22;292;48.800;9.216;2022-11-11T05:56:36;7.20;84.70
610;DHT22;292;48.800;9.216;2022-11-11T05:59:03;7.20;84.80
610;DHT22;292;48.800;9.216;2022-11-11T06:01:31;7.20;84.70
610;DHT22;292;48.800;9.216;2022-11-11T06:03:58;7.20;84.50
610;DHT22;292;48.800;9.216;2022-11-11T06:06:25;7.20;84.50
610;DHT22;292;48.800;9.216;2022-11-11T06:08:52;7.20;84.50
610;DHT22;292;48.800;9.216;2022-11-11T06:11:21;7.30;84.40
610;DHT22;292;48.800;9.216;2022-11-11T06:13:48;7.30;84.50
610;DHT22;292;48.800;9.216;2022-11-11T06:16:16;7.30;84.40
610;DHT22;292;48.800;9.216;2022-11-11T06:18:43;7.30;84.20
610;DHT22;292;48.800;9.216;2022-11-11T06:21:11;7.30;84.20
610;DHT22;292;48.800;9.216;2022-11-11T06:23:38;7.30;84.20
610;DHT22;292;48.800;9.216;2022-11-11T06:26:05;7.30;83.90
610;DHT22;292;48.800;9.216;2022-11-11T06:28:39;7.30;83.80
610;DHT22;292;48.800;9.216;2022-11-11T06:31:07;7.20;84.10
610;DHT22;292;48.800;9.216;2022-11-11T06:33:35;7.20;83.90
610;DHT22;292;48.800;9.216;2022-11-11T06:36:03;7.10;83.90
610;DHT22;292;48.800;9.216;2022-11-11T06:38:31;7.00;84.10
610;DHT22;292;48.800;9.216;2022-11-11T06:41:13;6.90;84.20
610;DHT22;292;48.800;9.216;2022-11-11T06:43:43;6.90;84.40
610;DHT22;292;48.800;9.216;2022-11-11T06:46:15;6.80;84.80
610;DHT22;292;48.800;9.216;2022-11-11T06:48:43;6.80;84.90
610;DHT22;292;48.800;9.216;2022-11-11T06:51:10;6.80;85.10
610;DHT22;292;48.800;9.216;2022-11-11T06:53:39;6.80;84.90
610;DHT22;292;48.800;9.216;2022-11-11T06:56:06;6.80;85.10
610;DHT22;292;48.800;9.216;2022-11-11T06:58:34;6.80;85.10
610;DHT22;292;48.800;9.216;2022-11-11T07:01:05;6.80;85.40
610;DHT22;292;48.800;9.216;2022-11-11T07:03:33;6.80;85.50
610;DHT22;292;48.800;9.216;2022-11-11T07:06:00;6.80;85.70
610;DHT22;292;48.800;9.216;2022-11-11T07:08:28;6.70;85.70
610;DHT22;292;48.800;9.216;2022-11-11T07:10:55;6.70;85.80
610;DHT22;292;48.800;9.216;2022-11-11T07:13:22;6.70;85.80
610;DHT22;292;48.800;9.216;2022-11-11T07:15:49;6.70;85.80
610;DHT22;292;48.800;9.216;2022-11-11T07:18:17;6.70;86.00
610;DHT22;292;48.800;9.216;2022-11-11T07:20:44;6.70;85.80
610;DHT22;292;48.800;9.216;2022-11-11T07:23:11;6.60;85.80
610;DHT22;292;48.800;9.216;2022-11-11T07:25:38;6.60;85.80
610;DHT22;292;48.800;9.216;2022-11-11T07:28:05;6.60;86.00
610;DHT22;292;48.800;9.216;2022-11-11T07:30:32;6.60;86.00
610;DHT22;292;48.800;9.216;2022-11-11T07:32:59;6.60;86.00
610;DHT22;292;48.800;9.216;2022-11-11T07:35:28;6.70;86.00
610;DHT22;292;48.800;9.216;2022-11-11T07:37:55;6.70;86.10
610;DHT22;292;48.800;9.216;2022-11-11T07:40:22;6.70;86.10
610;DHT22;292;48.800;9.216;2022-11-11T07:42:49;6.80;86.10
610;DHT22;292;48.800;9.216;2022-11-11T07:45:16;6.80;86.10
610;DHT22;292;48.800;9.216;2022-11-11T07:47:43;6.80;86.10
610;DHT22;292;48.800;9.216;2022-11-11T07:50:11;6.90;86.10
610;DHT22;292;48.800;9.216;2022-11-11T07:52:39;6.90;86.10
610;DHT22;292;48.800;9.216;2022-11-11T07:55:07;7.00;86.10
610;DHT22;292;48.800;9.216;2022-11-11T07:57:35;7.00;85.70
610;DHT22;292;48.800;9.216;2022-11-11T08:00:03;7.10;85.70
610;DHT22;292;48.800;9.216;2022-11-11T08:02:31;7.10;85.70
610;DHT22;292;48.800;9.216;2022-11-11T08:04:58;7.20;85.50
610;DHT22;292;48.800;9.216;2022-11-11T08:07:25;7.20;85.50
610;DHT22;292;48.800;9.216;2022-11-11T08:09:54;7.30;85.50
610;DHT22;292;48.800;9.216;2022-11-11T08:12:21;7.40;85.40
610;DHT22;292;48.800;9.216;2022-11-11T08:15:07;7.40;85.20
610;DHT22;292;48.800;9.216;2022-11-11T08:17:36;7.50;85.20
610;DHT22;292;48.800;9.216;2022-11-11T08:20:05;7.60;85.10
610;DHT22;292;48.800;9.216;2022-11-11T08:22:37;7.60;84.90
610;DHT22;292;48.800;9.216;2022-11-11T08:25:08;7.70;84.80
610;DHT22;292;48.800;9.216;2022-11-11T08:27:36;7.70;84.70
610;DHT22;292;48.800;9.216;2022-11-11T08:30:07;7.80;84.70
610;DHT22;292;48.800;9.216;2022-11-11T08:32:34;7.90;84.70
610;DHT22;292;48.800;9.216;2022-11-11T08:35:01;7.90;84.40
610;DHT22;292;48.800;9.216;2022-11-11T08:37:29;8.00;84.10
610;DHT22;292;48.800;9.216;2022-11-11T08:39:56;8.00;84.10
610;DHT22;292;48.800;9.216;2022-11-11T08:42:24;8.10;83.90
610;DHT22;292;48.800;9.216;2022-11-11T08:44:52;8.20;84.10
610;DHT22;292;48.800;9.216;2022-11-11T08:47:19;8.20;83.90
610;DHT22;292;48.800;9.216;2022-11-11T08:49:47;8.30;83.80
610;DHT22;292;48.800;9.216;2022-11-11T08:52:15;8.40;83.60
610;DHT22;292;48.800;9.216;2022-11-11T08:54:42;8.60;83.60
610;DHT22;292;48.800;9.216;2022-11-11T08:57:10;8.70;83.60
610;DHT22;292;48.800;9.216;2022-11-11T08:59:41;8.90;83.60
610;DHT22;292;48.800;9.216;2022-11-11T09:02:10;9.10;83.50
610;DHT22;292;48.800;9.216;2022-11-11T09:04:38;9.40;83.40
610;DHT22;292;48.800;9.216;2022-11-11T09:07:06;9.70;82.90
610;DHT22;292;48.800;9.216;2022-11-11T09:09:34;10.00;82.50
610;DHT22;292;48.800;9.216;2022-11-11T09:12:01;10.40;81.70
610;DHT22;292;48.800;9.216;2022-11-11T09:14:28;10.60;80.90
610;DHT22;292;48.800;9.216;2022-11-11T09:16:59;10.90;80.00
610;DHT22;292;48.800;9.216;2022-11-11T09:19:26;11.30;79.30
610;DHT22;292;48.800;9.216;2022-11-11T09:21:53;11.60;78.30
610;DHT22;292;48.800;9.216;2022-11-11T09:24:20;12.00;77.10
610;DHT22;292;48.800;9.216;2022-11-11T09:26:48;12.20;75.50
610;DHT22;292;48.800;9.216;2022-11-11T09:29:16;12.50;74.40
610;DHT22;292;48.800;9.216;2022-11-11T09:31:43;12.80;73.10
610;DHT22;292;48.800;9.216;2022-11-11T09:34:12;13.00;72.20
610;DHT22;292;48.800;9.216;2022-11-11T09:36:39;13.20;71.50
610;DHT22;292;48.800;9.216;2022-11-11T09:39:07;13.50;70.60
610;DHT22;292;48.800;9.216;2022-11-11T09:41:44;13.70;69.60
610;DHT22;292;48.800;9.216;2022-11-11T09:44:22;13.80;68.90
610;DHT22;292;48.800;9.216;2022-11-11T09:46:57;14.00;67.90
610;DHT22;292;48.800;9.216;2022-11-11T09:49:37;14.20;67.50
610;DHT22;292;48.800;9.216;2022-11-11T09:52:15;14.30;66.40
610;DHT22;292;48.800;9.216;2022-11-11T09:54:47;14.40;65.70
610;DHT22;292;48.800;9.216;2022-11-11T09:57:22;14.40;65.70
610;DHT22;292;48.800;9.216;2022-11-11T09:59:55;14.50;65.00
610;DHT22;292;48.800;9.216;2022-11-11T10:02:30;14.50;64.40
610;DHT22;292;48.800;9.216;2022-11-11T10:05:04;14.60;64.40
610;DHT22;292;48.800;9.216;2022-11-11T10:07:35;14.60;64.10
610;DHT22;292;48.800;9.216;2022-11-11T10:10:15;14.60;63.80
610;DHT22;292;48.800;9.216;2022-11-11T10:12:46;14.60;63.70
610;DHT22;292;48.800;9.216;2022-11-11T10:15:15;14.60;63.70
610;DHT22;292;48.800;9.216;2022-11-11T10:17:52;14.60;63.70
610;DHT22;292;48.800;9.216;2022-11-11T10:20:27;14.60;63.80
610;DHT22;292;48.800;9.216;2022-11-11T10:23:00;14.60;63.80
610;DHT22;292;48.800;9.216;2022-11-11T10:25:30;14.50;63.80
610;DHT22;292;48.800;9.216;2022-11-11T10:28:00;14.50;64.00
610;DHT22;292;48.800;9.216;2022-11-11T10:30:31;14.60;64.10
610;DHT22;292;48.800;9.216;2022-11-11T10:33:00;14.60;64.30
610;DHT22;292;48.800;9.216;2022-11-11T10:35:30;14.60;64.40
610;DHT22;292;48.800;9.216;2022-11-11T10:38:11;14.70;64.60
610;DHT22;292;48.800;9.216;2022-11-11T10:40:45;14.70;64.70
610;DHT22;292;48.800;9.216;2022-11-11T10:43:20;14.80;64.70
610;DHT22;292;48.800;9.216;2022-11-11T10:45:53;14.80;64.60
610;DHT22;292;48.800;9.216;2022-11-11T10:48:23;14.90;64.70
610;DHT22;292;48.800;9.216;2022-11-11T10:50:59;15.00;64.70
610;DHT22;292;48.800;9.216;2022-11-11T10:53:32;15.10;64.60
610;DHT22;292;48.800;9.216;2022-11-11T10:56:05;15.10;64.30
610;DHT22;292;48.800;9.216;2022-11-11T10:58:58;15.10;64.00
610;DHT22;292;48.800;9.216;2022-11-11T11:01:31;15.20;64.10
610;DHT22;292;48.800;9.216;2022-11-11T11:04:03;15.30;64.00
610;DHT22;292;48.800;9.216;2022-11-11T11:06:35;15.30;64.10
610;DHT22;292;48.800;9.216;2022-11-11T11:09:11;15.50;63.80
610;DHT22;292;48.800;9.216;2022-11-11T11:11:43;15.50;63.70
610;DHT22;292;48.800;9.216;2022-11-11T11:14:16;15.70;63.70
610;DHT22;292;48.800;9.216;2022-11-11T11:16:49;15.80;63.30
610;DHT22;292;48.800;9.216;2022-11-11T11:19:21;15.90;62.80
610;DHT22;292;48.800;9.216;2022-11-11T11:21:52;16.00;62.70
610;DHT22;292;48.800;9.216;2022-11-11T11:24:21;16.00;62.10
610;DHT22;292;48.800;9.216;2022-11-11T11:26:50;15.90;62.30
610;DHT22;292;48.800;9.216;2022-11-11T11:29:28;15.90;62.30
610;DHT22;292;48.800;9.216;2022-11-11T11:32:14;15.90;62.30
610;DHT22;292;48.800;9.216;2022-11-11T11:34:45;15.80;62.40
610;DHT22;292;48.800;9.216;2022-11-11T11:37:14;15.80;62.50
610;DHT22;292;48.800;9.216;2022-11-11T11:39:43;15.90;62.70
610;DHT22;292;48.800;9.216;2022-11-11T11:42:29;15.90;62.70
610;DHT22;292;48.800;9.216;2022-11-11T11:44:56;16.00;62.50
610;DHT22;292;48.800;9.216;2022-11-11T11:47:34;16.00;62.50
610;DHT22;292;48.800;9.216;2022-11-11T11:50:28;16.10;62.50
610;DHT22;292;48.800;9.216;2022-11-11T11:53:08;16.10;62.40
610;DHT22;292;48.800;9.216;2022-11-11T11:55:45;16.00;62.40
610;DHT22;292;48.800;9.216;2022-11-11T11:58:24;16.10;62.50
610;DHT22;292;48.800;9.216;2022-11-11T12:01:02;16.00;62.50
610;DHT22;292;48.800;9.216;2022-11-11T12:06:39;16.10;62.70
610;DHT22;292;48.800;9.216;2022-11-11T12:09:21;16.10;62.70
610;DHT22;292;48.800;9.216;2022-11-11T12:11:56;16.20;62.80
610;DHT22;292;48.800;9.216;2022-11-11T12:14:38;16.30;62.80
610;DHT22;292;48.800;9.216;2022-11-11T12:17:17;16.30;62.80
610;DHT22;292;48.800;9.216;2022-11-11T12:19:59;16.40;62.80
610;DHT22;292;48.800;9.216;2022-11-11T12:22:38;16.50;62.70
610;DHT22;292;48.800;9.216;2022-11-11T12:25:17;16.60;62.50
610;DHT22;292;48.800;9.216;2022-11-11T12:27:58;16.70;62.30
610;DHT22;292;48.800;9.216;2022-11-11T12:30:30;16.80;62.10
610;DHT22;292;48.800;9.216;2022-11-11T12:36:11;16.90;62.00
610;DHT22;292;48.800;9.216;2022-11-11T12:38:51;16.90;62.00
610;DHT22;292;48.800;9.216;2022-11-11T12:41:30;16.90;62.00
610;DHT22;292;48.800;9.216;2022-11-11T12:44:06;16.90;62.00
610;DHT22;292;48.800;9.216;2022-11-11T12:46:46;17.00;62.00
610;DHT22;292;48.800;9.216;2022-11-11T12:49:37;17.00;62.00
610;DHT22;292;48.800;9.216;2022-11-11T12:52:21;17.00;61.80
610;DHT22;292;48.800;9.216;2022-11-11T12:55:03;17.10;61.70
610;DHT22;292;48.800;9.216;2022-11-11T12:57:42;17.10;61.50
610;DHT22;292;48.800;9.216;2022-11-11T13:00:17;17.10;61.50
610;DHT22;292;48.800;9.216;2022-11-11T13:02:59;17.10;61.40
610;DHT22;292;48.800;9.216;2022-11-11T13:05:33;17.20;61.10
610;DHT22;292;48.800;9.216;2022-11-11T13:08:37;17.20;61.00
610;DHT22;292;48.800;9.216;2022-11-11T13:11:12;17.20;60.80
610;DHT22;292;48.800;9.216;2022-11-11T13:16:39;17.10;60.80
610;DHT22;292;48.800;9.216;2022-11-11T13:19:13;17.00;61.00
610;DHT22;292;48.800;9.216;2022-11-11T13:21:48;17.00;60.80
610;DHT22;292;48.800;9.216;2022-11-11T13:24:20;17.00;60.80
610;DHT22;292;48.800;9.216;2022-11-11T13:26:50;17.00;61.00
610;DHT22;292;48.800;9.216;2022-11-11T13:29:40;17.00;60.80
610;DHT22;292;48.800;9.216;2022-11-11T13:32:13;17.00;60.80
610;DHT22;292;48.800;9.216;2022-11-11T13:34:42;17.00;60.80
610;DHT22;292;48.800;9.216;2022-11-11T13:37:20;17.00;60.80
610;DHT22;292;48.800;9.216;2022-11-11T13:39:51;17.00;60.70
610;DHT22;292;48.800;9.216;2022-11-11T13:42:22;17.00;60.70
610;DHT22;292;48.800;9.216;2022-11-11T13:44:52;17.00;60.70
610;DHT22;292;48.800;9.216;2022-11-11T13:47:24;17.10;60.80
610;DHT22;292;48.800;9.216;2022-11-11T13:49:55;17.10;60.70
610;DHT22;292;48.800;9.216;2022-11-11T13:52:26;17.20;60.80
610;DHT22;292;48.800;9.216;2022-11-11T13:55:00;17.20;60.70
610;DHT22;292;48.800;9.216;2022-11-11T13:57:30;17.20;60.70
610;DHT22;292;48.800;9.216;2022-11-11T14:00:02;17.20;60.50
610;DHT22;292;48.800;9.216;2022-11-11T14:02:32;17.20;60.50
610;DHT22;292;48.800;9.216;2022-11-11T14:05:20;17.20;60.40
610;DHT22;292;48.800;9.216;2022-11-11T14:07:55;17.30;60.20
610;DHT22;292;48.800;9.216;2022-11-11T14:10:53;17.30;60.00
610;DHT22;292;48.800;9.216;2022-11-11T14:13:38;17.30;59.70
610;DHT22;292;48.800;9.216;2022-11-11T14:16:12;17.30;59.60
610;DHT22;292;48.800;9.216;2022-11-11T14:19:26;17.30;59.40
610;DHT22;292;48.800;9.216;2022-11-11T14:21:54;17.30;59.30
610;DHT22;292;48.800;9.216;2022-11-11T14:24:22;17.20;59.30
610;DHT22;292;48.800;9.216;2022-11-11T14:27:00;17.20;59.20
610;DHT22;292;48.800;9.216;2022-11-11T14:29:31;17.20;59.20
610;DHT22;292;48.800;9.216;2022-11-11T14:32:09;17.20;59.00
610;DHT22;292;48.800;9.216;2022-11-11T14:37:59;17.20;59.00
610;DHT22;292;48.800;9.216;2022-11-11T14:40:31;17.10;59.00
610;DHT22;292;48.800;9.216;2022-11-11T14:42:59;17.10;59.00
610;DHT22;292;48.800;9.216;2022-11-11T14:45:59;17.10;59.00
610;DHT22;292;48.800;9.216;2022-11-11T14:48:55;17.10;59.30
610;DHT22;292;48.800;9.216;2022-11-11T14:54:37;17.00;59.30
610;DHT22;292;48.800;9.216;2022-11-11T14:57:17;17.00;59.60
610;DHT22;292;48.800;9.216;2022-11-11T14:59:46;17.00;59.70
610;DHT22;292;48.800;9.216;2022-11-11T15:02:22;17.00;59.80
610;DHT22;292;48.800;9.216;2022-11-11T15:04:50;17.00;59.80
610;DHT22;292;48.800;9.216;2022-11-11T15:07:25;16.90;59.80
610;DHT22;292;48.800;9.216;2022-11-11T15:10:11;16.90;59.80
610;DHT22;292;48.800;9.216;2022-11-11T15:13:01;16.90;60.00
610;DHT22;292;48.800;9.216;2022-11-11T15:15:40;16.90;60.10
610;DHT22;292;48.800;9.216;2022-11-11T15:18:17;16.80;60.10
610;DHT22;292;48.800;9.216;2022-11-11T15:20:56;16.80;60.20
610;DHT22;292;48.800;9.216;2022-11-11T15:23:34;16.80;60.20
610;DHT22;292;48.800;9.216;2022-11-11T15:26:12;16.70;60.20
610;DHT22;292;48.800;9.216;2022-11-11T15:28:59;16.70;60.50
610;DHT22;292;48.800;9.216;2022-11-11T15:31:34;16.70;60.80
610;DHT22;292;48.800;9.216;2022-11-11T15:34:12;16.60;61.00
610;DHT22;292;48.800;9.216;2022-11-11T15:36:55;16.60;61.20
610;DHT22;292;48.800;9.216;2022-11-11T15:39:39;16.50;61.50
610;DHT22;292;48.800;9.216;2022-11-11T15:42:17;16.50;61.70
610;DHT22;292;48.800;9.216;2022-11-11T15:44:45;16.50;61.80
610;DHT22;292;48.800;9.216;2022-11-11T15:47:14;16.40;62.10
610;DHT22;292;48.800;9.216;2022-11-11T15:49:43;16.30;62.50
610;DHT22;292;48.800;9.216;2022-11-11T15:52:29;16.30;62.70
610;DHT22;292;48.800;9.216;2022-11-11T15:54:57;16.20;63.00
610;DHT22;292;48.800;9.216;2022-11-11T15:57:27;16.20;63.30
610;DHT22;292;48.800;9.216;2022-11-11T15:59:56;16.10;63.70
610;DHT22;292;48.800;9.216;2022-11-11T16:02:25;16.00;63.80
610;DHT22;292;48.800;9.216;2022-11-11T16:04:57;15.90;64.30
610;DHT22;292;48.800;9.216;2022-11-11T16:07:30;15.90;64.60
610;DHT22;292;48.800;9.216;2022-11-11T16:10:05;15.80;64.70
610;DHT22;292;48.800;9.216;2022-11-11T16:12:42;15.70;65.10
610;DHT22;292;48.800;9.216;2022-11-11T16:15:18;15.70;65.30
610;DHT22;292;48.800;9.216;2022-11-11T16:17:50;15.60;65.40
610;DHT22;292;48.800;9.216;2022-11-11T16:20:24;15.50;65.60
610;DHT22;292;48.800;9.216;2022-11-11T16:22:55;15.40;66.00
610;DHT22;292;48.800;9.216;2022-11-11T16:25:24;15.40;66.30
610;DHT22;292;48.800;9.216;2022-11-11T16:27:57;15.30;66.60
610;DHT22;292;48.800;9.216;2022-11-11T16:30:32;15.20;67.20
610;DHT22;292;48.800;9.216;2022-11-11T16:33:03;15.20;67.50
610;DHT22;292;48.800;9.216;2022-11-11T16:35:34;15.10;67.70
610;DHT22;292;48.800;9.216;2022-11-11T16:38:02;15.00;68.00
610;DHT22;292;48.800;9.216;2022-11-11T16:40:39;15.00;68.20
610;DHT22;292;48.800;9.216;2022-11-11T16:43:20;14.90;68.30
610;DHT22;292;48.800;9.216;2022-11-11T16:45:51;14.80;68.60
610;DHT22;292;48.800;9.216;2022-11-11T16:48:43;14.80;68.70
610;DHT22;292;48.800;9.216;2022-11-11T16:51:18;14.70;69.00
610;DHT22;292;48.800;9.216;2022-11-11T16:53:51;14.70;69.00
610;DHT22;292;48.800;9.216;2022-11-11T16:56:22;14.60;69.30
610;DHT22;292;48.800;9.216;2022-11-11T16:59:04;14.60;69.50
610;DHT22;292;48.800;9.216;2022-11-11T17:01:40;14.50;69.80
610;DHT22;292;48.800;9.216;2022-11-11T17:04:09;14.50;69.90
610;DHT22;292;48.800;9.216;2022-11-11T17:06:49;14.40;70.00
610;DHT22;292;48.800;9.216;2022-11-11T17:09:37;14.40;70.20
610;DHT22;292;48.800;9.216;2022-11-11T17:12:07;14.30;70.30
610;DHT22;292;48.800;9.216;2022-11-11T17:14:37;14.20;70.80
610;DHT22;292;48.800;9.216;2022-11-11T17:17:07;14.10;71.20
610;DHT22;292;48.800;9.216;2022-11-11T17:19:36;14.10;71.50
610;DHT22;292;48.800;9.216;2022-11-11T17:22:05;14.00;71.80
610;DHT22;292;48.800;9.216;2022-11-11T17:24:33;14.00;71.90
610;DHT22;292;48.800;9.216;2022-11-11T17:27:00;14.00;72.20
610;DHT22;292;48.800;9.216;2022-11-11T17:29:27;13.90;72.40
610;DHT22;292;48.800;9.216;2022-11-11T17:31:56;13.80;72.60
610;DHT22;292;48.800;9.216;2022-11-11T17:34:23;13.80;72.80